createdAt,value
2023-09-21T00:00:42.650Z,2.60
2023-09-21T00:03:10.238Z,2.75
2023-09-21T00:05:38.667Z,2.70
2023-09-21T00:08:07.809Z,2.60
2023-09-21T00:10:35.785Z,2.53
2023-09-21T00:13:05.528Z,2.40
2023-09-21T00:15:33.051Z,2.70
2023-09-21T00:18:00.995Z,2.35
2023-09-21T00:20:43.649Z,2.70
2023-09-21T00:23:11.331Z,2.63
2023-09-21T00:25:39.784Z,2.40
2023-09-21T00:28:14.011Z,2.33
2023-09-21T00:30:42.828Z,2.38
2023-09-21T00:33:10.646Z,2.45
2023-09-21T00:35:41.444Z,2.40
2023-09-21T00:38:10.664Z,2.70
2023-09-21T00:40:41.336Z,2.85
2023-09-21T00:43:13.529Z,2.40
2023-09-21T00:45:45.925Z,2.88
2023-09-21T00:48:23.555Z,2.88
2023-09-21T00:50:52.450Z,2.72
2023-09-21T00:53:20.449Z,2.38
2023-09-21T00:55:50.508Z,2.63
2023-09-21T00:58:18.624Z,2.60
2023-09-21T01:00:46.811Z,3.00
2023-09-21T01:03:15.772Z,2.65
2023-09-21T01:05:45.619Z,2.65
2023-09-21T01:08:19.289Z,3.10
2023-09-21T01:13:18.342Z,2.60
2023-09-21T01:16:02.133Z,2.75
2023-09-21T01:21:00.133Z,2.50
2023-09-21T01:23:53.681Z,2.88
2023-09-21T01:26:22.176Z,2.65
2023-09-21T01:28:49.667Z,2.75
2023-09-21T01:31:17.513Z,2.97
2023-09-21T01:33:45.103Z,2.67
2023-09-21T01:36:14.123Z,2.63
2023-09-21T01:38:46.295Z,2.63
2023-09-21T01:41:18.398Z,2.85
2023-09-21T01:43:46.338Z,2.80
2023-09-21T01:46:18.948Z,2.75
2023-09-21T01:48:47.041Z,2.90
2023-09-21T01:51:14.844Z,3.00
2023-09-21T01:53:43.363Z,2.80
2023-09-21T01:56:10.884Z,2.70
2023-09-21T01:58:38.121Z,3.20
2023-09-21T02:01:05.647Z,2.80
2023-09-21T02:03:33.148Z,2.80
2023-09-21T02:06:04.154Z,2.63
2023-09-21T02:08:34.428Z,2.70
2023-09-21T02:11:01.984Z,2.20
2023-09-21T02:13:29.256Z,3.25
2023-09-21T02:15:56.639Z,2.58
2023-09-21T02:18:24.106Z,3.05
2023-09-21T02:20:54.604Z,2.55
2023-09-21T02:23:23.512Z,3.00
2023-09-21T02:25:53.322Z,2.80
2023-09-21T02:28:22.167Z,2.85
2023-09-21T02:30:50.221Z,3.42
2023-09-21T02:33:18.546Z,3.13
2023-09-21T02:35:48.250Z,2.60
2023-09-21T02:38:18.620Z,3.55
2023-09-21T02:40:47.132Z,3.03
2023-09-21T02:43:16.440Z,3.08
2023-09-21T02:45:46.410Z,3.13
2023-09-21T02:48:14.090Z,2.47
2023-09-21T02:50:41.810Z,3.20
2023-09-21T02:53:10.593Z,3.17
2023-09-21T02:55:38.839Z,3.22
2023-09-21T02:58:14.821Z,3.35
2023-09-21T03:00:46.847Z,3.63
2023-09-21T03:03:17.733Z,3.55
2023-09-21T03:05:47.885Z,4.10
2023-09-21T03:08:15.828Z,3.58
2023-09-21T03:10:46.920Z,3.60
2023-09-21T03:13:21.218Z,3.33
2023-09-21T03:15:51.619Z,3.30
2023-09-21T03:18:23.110Z,3.47
2023-09-21T03:20:54.735Z,3.22
2023-09-21T03:23:22.885Z,3.75
2023-09-21T03:25:51.678Z,3.47
2023-09-21T03:28:20.131Z,3.80
2023-09-21T03:30:48.502Z,3.20
2023-09-21T03:33:17.179Z,3.55
2023-09-21T03:35:45.289Z,3.30
2023-09-21T03:38:13.901Z,3.67
2023-09-21T03:40:41.750Z,3.45
2023-09-21T03:43:11.887Z,3.20
2023-09-21T03:45:39.995Z,3.30
2023-09-21T03:48:10.061Z,3.50
2023-09-21T03:50:38.234Z,3.50
2023-09-21T03:53:06.294Z,4.25
2023-09-21T03:55:34.121Z,3.50
2023-09-21T03:58:01.898Z,3.25
2023-09-21T04:00:35.363Z,3.90
2023-09-21T04:03:04.704Z,4.05
2023-09-21T04:05:32.945Z,4.07
2023-09-21T04:08:00.353Z,4.32
2023-09-21T04:10:27.734Z,3.92
2023-09-21T04:12:58.313Z,4.07
2023-09-21T04:15:26.772Z,4.30
2023-09-21T04:17:54.573Z,4.45
2023-09-21T04:20:23.094Z,3.92
2023-09-21T04:22:53.195Z,4.40
2023-09-21T04:25:20.634Z,4.43
2023-09-21T04:27:52.355Z,4.13
2023-09-21T04:30:24.014Z,4.35
2023-09-21T04:32:52.496Z,4.07
2023-09-21T04:35:20.627Z,4.55
2023-09-21T04:37:48.576Z,4.60
2023-09-21T04:40:16.363Z,4.78
2023-09-21T04:42:46.948Z,4.40
2023-09-21T04:45:15.082Z,4.95
2023-09-21T04:47:44.511Z,4.75
2023-09-21T04:50:13.025Z,4.95
2023-09-21T04:52:40.520Z,5.43
2023-09-21T04:55:10.838Z,4.78
2023-09-21T04:57:38.625Z,4.97
2023-09-21T05:00:13.088Z,4.88
2023-09-21T05:02:40.585Z,5.35
2023-09-21T05:05:08.295Z,5.65
2023-09-21T05:07:38.317Z,5.05
2023-09-21T05:10:08.945Z,5.97
2023-09-21T05:12:36.352Z,5.28
2023-09-21T05:15:08.149Z,7.28
2023-09-21T05:17:37.954Z,18.30
2023-09-21T05:20:06.924Z,18.80
2023-09-21T05:22:34.715Z,15.57
2023-09-21T05:25:02.280Z,17.45
2023-09-21T05:27:31.160Z,13.77
2023-09-21T05:29:58.802Z,13.27
2023-09-21T05:32:28.043Z,9.95
2023-09-21T05:34:55.927Z,10.25
2023-09-21T05:37:23.197Z,6.93
2023-09-21T05:39:50.470Z,5.72
2023-09-21T05:42:17.984Z,5.88
2023-09-21T05:44:45.465Z,6.55
2023-09-21T05:47:12.827Z,4.97
2023-09-21T05:49:40.711Z,9.38
2023-09-21T05:52:13.820Z,13.90
2023-09-21T05:54:43.873Z,5.13
2023-09-21T05:57:12.787Z,4.20
2023-09-21T05:59:40.568Z,4.63
2023-09-21T06:02:09.408Z,3.95
2023-09-21T06:04:37.534Z,4.28
2023-09-21T06:07:05.177Z,4.53
2023-09-21T06:09:34.700Z,4.40
2023-09-21T06:12:02.303Z,8.27
2023-09-21T06:14:29.943Z,14.15
2023-09-21T06:16:58.662Z,12.38
2023-09-21T06:19:26.000Z,10.38
2023-09-21T06:21:58.172Z,7.75
2023-09-21T06:24:29.099Z,6.80
2023-09-21T06:26:56.429Z,6.10
2023-09-21T06:29:24.365Z,5.78
2023-09-21T06:34:26.343Z,4.13
2023-09-21T06:36:54.248Z,4.95
2023-09-21T06:39:22.874Z,3.53
2023-09-21T06:41:50.318Z,2.90
2023-09-21T06:44:19.537Z,2.70
2023-09-21T06:46:47.163Z,2.47
2023-09-21T06:49:14.569Z,2.72
2023-09-21T06:51:41.937Z,3.05
2023-09-21T06:54:09.891Z,3.70
2023-09-21T06:56:37.192Z,3.90
2023-09-21T06:59:07.860Z,3.38
2023-09-21T07:01:35.788Z,3.15
2023-09-21T07:04:05.219Z,4.28
2023-09-21T07:06:32.893Z,5.22
2023-09-21T07:09:02.420Z,3.20
2023-09-21T07:11:29.697Z,3.25
2023-09-21T07:13:56.954Z,3.95
2023-09-21T07:16:24.379Z,2.33
2023-09-21T07:18:51.752Z,2.47
2023-09-21T07:21:19.217Z,2.50
2023-09-21T07:23:46.475Z,2.33
2023-09-21T07:26:14.041Z,2.42
2023-09-21T07:28:41.356Z,1.55
2023-09-21T07:31:10.693Z,2.67
2023-09-21T07:33:38.166Z,2.78
2023-09-21T07:36:05.886Z,2.80
2023-09-21T07:38:33.223Z,3.40
2023-09-21T07:41:00.677Z,2.85
2023-09-21T07:43:27.880Z,2.72
2023-09-21T07:45:55.188Z,2.75
2023-09-21T07:48:24.646Z,2.83
2023-09-21T07:50:52.427Z,2.60
2023-09-21T07:53:20.618Z,3.17
2023-09-21T07:55:47.949Z,3.03
2023-09-21T07:58:15.152Z,2.42
2023-09-21T08:00:43.426Z,2.80
2023-09-21T08:03:10.870Z,2.67
2023-09-21T08:05:38.465Z,2.83
2023-09-21T08:08:06.780Z,3.40
2023-09-21T08:10:34.724Z,4.50
2023-09-21T08:13:03.391Z,3.70
2023-09-21T08:15:30.867Z,3.28
2023-09-21T08:17:59.570Z,2.20
2023-09-21T08:20:27.138Z,1.80
2023-09-21T08:22:55.054Z,1.50
2023-09-21T08:25:22.344Z,1.27
2023-09-21T08:27:49.605Z,0.90
2023-09-21T08:30:17.323Z,1.13
2023-09-21T08:32:44.753Z,1.25
2023-09-21T08:35:12.621Z,0.90
2023-09-21T08:37:39.902Z,0.90
2023-09-21T08:40:07.902Z,1.00
2023-09-21T08:42:37.369Z,1.15
2023-09-21T08:45:09.286Z,1.00
2023-09-21T08:47:37.070Z,1.15
2023-09-21T08:50:04.987Z,1.00
2023-09-21T08:52:33.807Z,0.88
2023-09-21T08:55:01.165Z,0.90
2023-09-21T08:57:28.470Z,0.95
2023-09-21T09:00:02.549Z,0.75
2023-09-21T09:02:29.928Z,0.70
2023-09-21T09:04:57.857Z,0.80
2023-09-21T09:07:25.132Z,0.85
2023-09-21T09:09:52.772Z,0.60
2023-09-21T09:12:23.969Z,0.88
2023-09-21T09:14:58.930Z,1.10
2023-09-21T09:17:31.836Z,0.57
2023-09-21T09:19:59.393Z,0.77
2023-09-21T09:22:26.618Z,0.88
2023-09-21T09:24:54.523Z,0.80
2023-09-21T09:27:21.904Z,0.60
2023-09-21T09:29:49.740Z,0.90
2023-09-21T09:32:18.752Z,0.75
2023-09-21T09:34:47.556Z,1.10
2023-09-21T09:37:16.867Z,0.90
2023-09-21T09:39:48.685Z,0.70
2023-09-21T09:42:16.735Z,0.82
2023-09-21T09:44:51.495Z,0.70
2023-09-21T09:47:20.140Z,1.02
2023-09-21T09:49:52.919Z,0.75
2023-09-21T09:52:21.527Z,1.30
2023-09-21T09:54:49.812Z,0.77
2023-09-21T09:57:17.914Z,1.20
2023-09-21T09:59:45.995Z,0.80
2023-09-21T10:02:19.947Z,0.70
2023-09-21T10:04:52.593Z,0.90
2023-09-21T10:07:19.854Z,0.98
2023-09-21T10:09:47.749Z,2.70
2023-09-21T10:12:16.186Z,1.80
2023-09-21T10:14:45.238Z,5.38
2023-09-21T10:17:15.758Z,0.90
2023-09-21T10:19:45.052Z,1.88
2023-09-21T10:22:24.025Z,1.70
2023-09-21T10:24:54.780Z,1.00
2023-09-21T10:27:25.555Z,1.42
2023-09-21T10:29:57.072Z,1.20
2023-09-21T10:32:28.713Z,2.10
2023-09-21T10:34:56.604Z,1.50
2023-09-21T10:37:30.585Z,1.23
2023-09-21T10:39:59.635Z,3.03
2023-09-21T10:42:29.111Z,1.60
2023-09-21T10:45:03.996Z,3.40
2023-09-21T10:47:34.587Z,1.10
2023-09-21T10:50:07.690Z,1.20
2023-09-21T10:52:35.803Z,1.17
2023-09-21T10:55:03.013Z,1.00
2023-09-21T10:57:31.545Z,1.10
2023-09-21T11:02:36.109Z,0.88
2023-09-21T11:05:03.547Z,1.00
2023-09-21T11:07:30.923Z,0.90
2023-09-21T11:09:58.203Z,1.00
2023-09-21T11:12:25.710Z,1.00
2023-09-21T11:14:53.202Z,0.82
2023-09-21T11:17:20.570Z,1.15
2023-09-21T11:19:48.563Z,1.00
2023-09-21T11:22:16.140Z,1.10
2023-09-21T11:24:43.948Z,1.10
2023-09-21T11:27:12.042Z,1.15
2023-09-21T11:29:41.168Z,1.00
2023-09-21T11:32:09.036Z,0.70
2023-09-21T11:34:38.377Z,1.02
2023-09-21T11:37:07.077Z,1.05
2023-09-21T11:39:34.685Z,0.85
2023-09-21T11:42:02.081Z,0.80
2023-09-21T11:44:30.207Z,0.95
2023-09-21T11:47:02.745Z,0.82
2023-09-21T11:49:44.145Z,1.00
2023-09-21T11:52:12.511Z,0.88
2023-09-21T11:54:40.921Z,1.08
2023-09-21T11:57:11.036Z,0.73
2023-09-21T11:59:43.851Z,0.90
2023-09-21T12:02:18.144Z,1.10
2023-09-21T12:04:45.859Z,0.82
2023-09-21T12:07:15.699Z,0.90
2023-09-21T12:09:43.070Z,1.10
2023-09-21T12:12:11.525Z,1.00
2023-09-21T12:14:42.341Z,1.08
2023-09-21T12:17:13.876Z,1.08
2023-09-21T12:19:43.443Z,1.08
2023-09-21T12:22:13.039Z,1.67
2023-09-21T12:24:40.644Z,1.42
2023-09-21T12:27:08.614Z,1.73
2023-09-21T12:29:36.587Z,1.10
2023-09-21T12:32:07.042Z,1.00
2023-09-21T12:34:35.888Z,1.55
2023-09-21T12:37:04.346Z,1.27
2023-09-21T12:39:32.277Z,1.35
2023-09-21T12:42:00.533Z,1.25
2023-09-21T12:44:28.087Z,1.10
2023-09-21T12:46:56.134Z,0.90
2023-09-21T12:49:23.490Z,1.50
2023-09-21T12:51:51.008Z,1.15
2023-09-21T12:54:20.722Z,1.13
2023-09-21T12:56:48.063Z,1.08
2023-09-21T13:01:42.527Z,0.88
2023-09-21T13:04:09.804Z,0.85
2023-09-21T13:06:42.306Z,0.80
2023-09-21T13:09:12.268Z,0.77
2023-09-21T13:11:39.653Z,1.10
2023-09-21T13:14:06.877Z,1.33
2023-09-21T13:16:34.160Z,1.00
2023-09-21T13:19:01.445Z,0.90
2023-09-21T13:21:29.689Z,1.00
2023-09-21T13:23:57.677Z,1.25
2023-09-21T13:26:25.811Z,2.35
2023-09-21T13:28:53.170Z,1.48
2023-09-21T13:31:24.260Z,8.82
2023-09-21T13:33:52.407Z,1.70
2023-09-21T13:36:20.076Z,1.52
2023-09-21T13:38:53.059Z,1.48
2023-09-21T13:41:20.302Z,1.48
2023-09-21T13:43:47.524Z,1.13
2023-09-21T13:46:14.864Z,1.10
2023-09-21T13:48:42.578Z,1.33
2023-09-21T13:51:10.097Z,1.75
2023-09-21T13:53:38.349Z,1.00
2023-09-21T13:56:05.779Z,0.80
2023-09-21T13:58:34.473Z,0.90
2023-09-21T14:01:01.822Z,1.35
2023-09-21T14:03:30.095Z,1.20
2023-09-21T14:05:57.568Z,0.90
2023-09-21T14:08:24.802Z,1.10
2023-09-21T14:10:52.606Z,0.85
2023-09-21T14:13:19.927Z,1.15
2023-09-21T14:15:47.188Z,0.95
2023-09-21T14:18:15.093Z,1.20
2023-09-21T14:20:43.015Z,1.50
2023-09-21T14:23:10.353Z,1.10
2023-09-21T14:25:37.808Z,2.00
2023-09-21T14:28:05.591Z,1.65
2023-09-21T14:30:33.007Z,1.60
2023-09-21T14:33:00.379Z,1.27
2023-09-21T14:35:27.760Z,1.13
2023-09-21T14:37:55.235Z,1.10
2023-09-21T14:40:22.523Z,1.05
2023-09-21T14:42:51.239Z,1.20
2023-09-21T14:45:20.198Z,1.73
2023-09-21T14:47:47.576Z,1.50
2023-09-21T14:50:15.656Z,1.17
2023-09-21T14:52:42.887Z,1.23
2023-09-21T14:55:10.109Z,1.23
2023-09-21T14:57:37.357Z,1.30
2023-09-21T15:00:08.162Z,1.23
2023-09-21T15:02:38.393Z,1.58
2023-09-21T15:05:08.399Z,1.02
2023-09-21T15:07:37.148Z,1.55
2023-09-21T15:10:04.922Z,1.42
2023-09-21T15:12:32.519Z,1.20
2023-09-21T15:15:00.784Z,1.35
2023-09-21T15:17:28.362Z,2.17
2023-09-21T15:19:56.882Z,2.72
2023-09-21T15:22:24.869Z,1.90
2023-09-21T15:24:52.804Z,1.73
2023-09-21T15:27:20.819Z,1.00
2023-09-21T15:29:48.649Z,1.10
2023-09-21T15:32:16.653Z,1.50
2023-09-21T15:34:51.424Z,1.67
2023-09-21T15:37:18.867Z,1.20
2023-09-21T15:39:46.218Z,1.52
2023-09-21T15:42:13.541Z,1.20
2023-09-21T15:44:40.846Z,1.30
2023-09-21T15:49:35.264Z,2.42
2023-09-21T15:52:03.046Z,1.90
2023-09-21T15:54:31.239Z,1.73
2023-09-21T15:56:58.737Z,2.75
2023-09-21T15:59:26.113Z,1.30
2023-09-21T16:01:53.404Z,1.90
2023-09-21T16:04:20.868Z,2.78
2023-09-21T16:06:48.333Z,2.22
2023-09-21T16:09:15.810Z,1.50
2023-09-21T16:11:43.269Z,1.60
2023-09-21T16:14:10.509Z,2.45
2023-09-21T16:16:37.879Z,1.98
2023-09-21T16:19:05.479Z,1.38
2023-09-21T16:21:35.611Z,1.40
2023-09-21T16:24:03.609Z,1.40
2023-09-21T16:26:31.399Z,1.50
2023-09-21T16:28:59.258Z,7.22
2023-09-21T16:31:27.292Z,3.40
2023-09-21T16:33:54.735Z,2.30
2023-09-21T16:36:22.244Z,2.78
2023-09-21T16:38:50.286Z,2.67
2023-09-21T16:41:19.131Z,2.50
2023-09-21T16:43:46.536Z,2.53
2023-09-21T16:46:32.036Z,3.13
2023-09-21T16:49:00.991Z,2.70
2023-09-21T16:51:28.218Z,3.47
2023-09-21T16:53:55.543Z,3.47
2023-09-21T16:56:22.978Z,3.10
2023-09-21T16:58:50.945Z,2.97
2023-09-21T17:01:18.856Z,2.97
2023-09-21T17:03:46.908Z,1.83
2023-09-21T17:06:14.478Z,2.80
2023-09-21T17:08:41.802Z,3.03
2023-09-21T17:11:09.069Z,2.53
2023-09-21T17:13:36.757Z,2.20
2023-09-21T17:16:06.095Z,1.73
2023-09-21T17:18:34.106Z,1.75
2023-09-21T17:21:01.712Z,2.17
2023-09-21T17:23:28.991Z,1.90
2023-09-21T17:25:56.446Z,3.17
2023-09-21T17:28:23.681Z,3.30
2023-09-21T17:30:50.892Z,3.88
2023-09-21T17:33:18.211Z,4.95
2023-09-21T17:35:45.481Z,3.70
2023-09-21T17:38:14.753Z,3.72
2023-09-21T17:40:41.995Z,3.40
2023-09-21T17:43:09.973Z,2.70
2023-09-21T17:45:37.567Z,2.00
2023-09-21T17:48:13.782Z,2.28
2023-09-21T17:50:56.771Z,2.05
2023-09-21T17:53:31.841Z,2.60
2023-09-21T17:55:59.343Z,2.65
2023-09-21T17:58:26.648Z,2.20
2023-09-21T18:00:54.045Z,2.00
2023-09-21T18:03:22.024Z,1.58
2023-09-21T18:05:49.445Z,1.95
2023-09-21T18:08:18.141Z,2.10
2023-09-21T18:10:45.414Z,1.88
2023-09-21T18:13:15.185Z,2.08
2023-09-21T18:15:42.602Z,2.03
2023-09-21T18:18:10.297Z,2.08
2023-09-21T18:20:38.027Z,1.95
2023-09-21T18:23:05.304Z,1.98
2023-09-21T18:25:33.231Z,2.03
2023-09-21T18:28:00.534Z,2.63
2023-09-21T18:30:28.016Z,2.05
2023-09-21T18:32:55.691Z,2.58
2023-09-21T18:35:23.753Z,2.25
2023-09-21T18:37:54.335Z,1.95
2023-09-21T18:40:21.979Z,2.05
2023-09-21T18:42:49.569Z,2.15
2023-09-21T18:45:17.657Z,2.78
2023-09-21T18:47:45.002Z,2.17
2023-09-21T18:50:13.312Z,3.13
2023-09-21T18:52:41.244Z,2.20
2023-09-21T18:55:08.786Z,2.75
2023-09-21T18:57:36.466Z,2.33
2023-09-21T19:00:04.482Z,2.63
2023-09-21T19:02:32.052Z,2.40
2023-09-21T19:04:59.373Z,2.58
2023-09-21T19:07:26.562Z,2.08
2023-09-21T19:09:55.146Z,2.40
2023-09-21T19:12:22.486Z,2.33
2023-09-21T19:14:50.027Z,2.85
2023-09-21T19:17:17.394Z,2.08
2023-09-21T19:19:44.669Z,2.88
2023-09-21T19:22:12.296Z,2.40
2023-09-21T19:24:39.684Z,2.17
2023-09-21T19:27:07.307Z,2.20
2023-09-21T19:29:35.771Z,2.30
2023-09-21T19:32:03.398Z,2.47
2023-09-21T19:34:30.864Z,2.33
2023-09-21T19:36:58.081Z,2.20
2023-09-21T19:39:26.295Z,2.55
2023-09-21T19:41:55.038Z,2.47
2023-09-21T19:44:22.568Z,2.33
2023-09-21T19:46:49.869Z,2.03
2023-09-21T19:49:17.251Z,2.38
2023-09-21T19:51:44.547Z,2.28
2023-09-21T19:54:11.899Z,1.90
2023-09-21T19:56:40.254Z,2.58
2023-09-21T19:59:07.575Z,2.30
2023-09-21T20:01:34.813Z,2.15
2023-09-21T20:04:02.363Z,2.25
2023-09-21T20:06:30.140Z,2.63
2023-09-21T20:08:57.440Z,2.25
2023-09-21T20:11:24.796Z,2.53
2023-09-21T20:13:52.498Z,2.60
2023-09-21T20:16:20.492Z,2.10
2023-09-21T20:18:47.897Z,2.35
2023-09-21T20:21:15.361Z,2.08
2023-09-21T20:23:42.903Z,2.65
2023-09-21T20:26:10.957Z,2.72
2023-09-21T20:28:38.523Z,2.10
2023-09-21T20:31:07.049Z,2.67
2023-09-21T20:33:34.263Z,2.53
2023-09-21T20:36:01.559Z,2.67
2023-09-21T20:38:28.750Z,2.30
2023-09-21T20:40:56.149Z,2.42
2023-09-21T20:43:23.343Z,2.28
2023-09-21T20:45:51.022Z,2.67
2023-09-21T20:48:18.478Z,2.88
2023-09-21T20:50:45.780Z,2.55
2023-09-21T20:53:14.174Z,2.25
2023-09-21T20:55:41.748Z,2.63
2023-09-21T20:58:09.041Z,2.40
2023-09-21T21:00:36.396Z,2.50
2023-09-21T21:03:03.893Z,2.65
2023-09-21T21:05:31.797Z,2.53
2023-09-21T21:07:59.338Z,2.60
2023-09-21T21:10:26.798Z,2.90
2023-09-21T21:12:54.663Z,2.88
2023-09-21T21:15:21.977Z,2.45
2023-09-21T21:17:49.355Z,2.70
2023-09-21T21:20:16.604Z,2.85
2023-09-21T21:22:44.086Z,2.28
2023-09-21T21:25:12.005Z,2.50
2023-09-21T21:27:39.428Z,2.70
2023-09-21T21:30:07.493Z,2.65
2023-09-21T21:32:35.166Z,2.33
2023-09-21T21:35:02.394Z,2.50
2023-09-21T21:37:29.646Z,2.50
2023-09-21T21:39:56.868Z,3.42
2023-09-21T21:42:24.264Z,3.10
2023-09-21T21:44:51.493Z,2.83
2023-09-21T21:47:18.719Z,2.97
2023-09-21T21:49:46.209Z,2.85
2023-09-21T21:52:13.740Z,1.85
2023-09-21T21:54:41.074Z,1.15
2023-09-21T21:57:08.391Z,0.50
2023-09-21T21:59:35.669Z,0.38
2023-09-21T22:02:03.447Z,0.60
2023-09-21T22:04:31.872Z,0.57
2023-09-21T22:06:59.286Z,0.50
2023-09-21T22:09:26.791Z,0.63
2023-09-21T22:11:55.332Z,0.57
2023-09-21T22:14:22.593Z,0.30
2023-09-21T22:16:50.685Z,0.52
2023-09-21T22:19:18.025Z,0.20
2023-09-21T22:21:45.661Z,0.30
2023-09-21T22:24:13.067Z,0.20
2023-09-21T22:26:40.275Z,0.30
2023-09-21T22:29:07.510Z,0.20
2023-09-21T22:31:35.166Z,0.20
2023-09-21T22:34:02.467Z,0.60
2023-09-21T22:36:29.889Z,0.20
2023-09-21T22:38:58.854Z,0.40
2023-09-21T22:41:26.407Z,1.15
2023-09-21T22:43:53.915Z,0.68
2023-09-21T22:46:21.361Z,0.47
2023-09-21T22:48:49.638Z,0.98
2023-09-21T22:51:17.662Z,0.70
2023-09-21T22:53:46.578Z,0.50
2023-09-21T22:56:13.903Z,0.55
2023-09-21T22:58:41.136Z,1.23
2023-09-21T23:01:08.511Z,0.40
2023-09-21T23:03:36.400Z,0.70
2023-09-21T23:06:10.989Z,0.38
2023-09-21T23:08:38.969Z,0.73
2023-09-21T23:11:10.793Z,0.45
2023-09-21T23:13:43.453Z,0.20
2023-09-21T23:16:12.637Z,0.85
2023-09-21T23:18:40.181Z,1.10
2023-09-21T23:21:10.292Z,0.82
2023-09-21T23:23:38.491Z,0.50
2023-09-21T23:26:07.448Z,0.50
2023-09-21T23:28:35.792Z,0.35
2023-09-21T23:31:03.131Z,0.30
2023-09-21T23:33:30.488Z,0.40
2023-09-21T23:36:00.021Z,0.47
2023-09-21T23:38:27.530Z,0.35
2023-09-21T23:40:54.724Z,0.68
2023-09-21T23:43:21.959Z,0.43
2023-09-21T23:45:49.187Z,0.45
2023-09-21T23:48:16.666Z,0.70
2023-09-21T23:50:45.086Z,0.73
2023-09-21T23:53:16.798Z,0.68
2023-09-21T23:55:44.368Z,0.30
2023-09-21T23:58:11.620Z,1.13
